createdAt,value
2023-02-13T05:29:20.606Z,1.35
2023-02-13T05:34:23.934Z,1.17
2023-02-13T05:39:25.591Z,1.23
2023-02-13T05:44:27.276Z,1.25
2023-02-13T05:49:28.896Z,1.33
2023-02-13T05:54:30.524Z,1.16
2023-02-13T05:59:32.148Z,0.99
2023-02-13T06:04:33.830Z,0.87
2023-02-13T06:09:35.491Z,1.04
2023-02-13T06:14:37.090Z,1.19
2023-02-13T06:19:38.734Z,0.89
2023-02-13T06:24:40.392Z,1.16
2023-02-13T06:29:42.016Z,1.14
2023-02-13T06:34:43.655Z,1.19
2023-02-13T06:39:45.469Z,1.00
2023-02-13T06:44:47.064Z,1.00
2023-02-13T06:49:48.785Z,1.28
2023-02-13T06:54:50.510Z,0.97
2023-02-13T06:59:52.204Z,1.32
2023-02-13T07:04:53.887Z,1.19
2023-02-13T07:09:55.562Z,1.33
2023-02-13T07:14:57.262Z,1.28
2023-02-13T07:20:01.701Z,0.75
2023-02-13T07:25:04.040Z,1.02
2023-02-13T07:30:06.886Z,1.26
2023-02-13T07:35:08.718Z,0.94
2023-02-13T07:40:10.891Z,1.11
2023-02-13T07:45:12.509Z,1.15
2023-02-13T07:50:14.332Z,1.26
2023-02-13T07:55:16.231Z,0.81
2023-02-13T08:00:18.650Z,1.19
2023-02-13T08:05:20.308Z,1.36
2023-02-13T08:10:40.761Z,1.40
2023-02-13T08:15:44.707Z,1.23
2023-02-13T08:20:46.348Z,1.35
2023-02-13T08:25:49.947Z,1.52
2023-02-13T08:30:51.852Z,1.57
2023-02-13T08:35:53.576Z,1.64
2023-02-13T08:40:57.968Z,1.50
2023-02-13T08:46:01.095Z,1.55
2023-02-13T08:51:08.776Z,1.68
2023-02-13T08:56:11.711Z,1.73
2023-02-13T09:01:13.450Z,1.56
2023-02-13T09:06:15.217Z,1.93
2023-02-13T09:11:16.917Z,2.21
2023-02-13T09:16:18.637Z,2.37
2023-02-13T09:21:23.789Z,2.28
2023-02-13T09:26:25.564Z,2.35
2023-02-13T09:31:29.448Z,2.36
2023-02-13T09:36:31.538Z,2.43
2023-02-13T09:41:37.668Z,2.48
2023-02-13T09:46:40.826Z,2.15
2023-02-13T09:51:45.538Z,2.29
2023-02-13T09:57:07.348Z,2.53
2023-02-13T10:02:33.473Z,2.65
2023-02-13T10:07:53.784Z,2.95
2023-02-13T10:13:31.278Z,2.94
2023-02-13T10:19:19.353Z,2.98
2023-02-13T10:24:33.278Z,3.19
2023-02-13T10:30:05.612Z,3.17
2023-02-13T10:35:27.830Z,3.03
2023-02-13T10:40:38.864Z,3.31
2023-02-13T10:45:55.708Z,3.46
2023-02-13T10:51:00.252Z,3.48
2023-02-13T10:56:04.749Z,3.46
2023-02-13T11:01:46.373Z,3.94
2023-02-13T11:07:06.071Z,3.60
2023-02-13T11:12:26.646Z,3.85
2023-02-13T11:17:32.358Z,3.67
2023-02-13T11:22:38.121Z,4.35
2023-02-13T11:27:40.671Z,4.25
2023-02-13T11:32:42.393Z,4.00
2023-02-13T11:37:44.063Z,4.35
2023-02-13T11:42:51.223Z,4.35
2023-02-13T11:47:55.531Z,4.86
2023-02-13T11:53:20.827Z,4.87
2023-02-13T11:58:28.734Z,4.91
2023-02-13T12:03:32.349Z,4.97
2023-02-13T12:08:37.369Z,5.10
2023-02-13T12:13:39.668Z,5.22
2023-02-13T12:18:46.710Z,5.03
2023-02-13T12:24:03.434Z,4.99
2023-02-13T12:29:05.431Z,5.45
2023-02-13T12:34:35.176Z,5.47
2023-02-13T12:39:57.164Z,5.39
2023-02-13T12:45:03.344Z,5.52
2023-02-13T12:50:29.313Z,5.29
2023-02-13T12:55:48.669Z,5.61
2023-02-13T13:01:19.686Z,5.77
2023-02-13T13:06:30.454Z,5.66
2023-02-13T13:11:51.682Z,5.85
2023-02-13T13:17:18.244Z,5.80
2023-02-13T13:22:31.044Z,5.60
2023-02-13T13:27:50.163Z,5.90
2023-02-13T13:32:56.910Z,6.02
2023-02-13T13:38:15.761Z,6.04
2023-02-13T13:44:16.425Z,5.92
2023-02-13T13:49:36.391Z,5.67
2023-02-13T13:54:38.202Z,5.73
2023-02-13T13:59:39.999Z,6.12
2023-02-13T14:05:00.330Z,5.95
2023-02-13T14:10:02.076Z,6.04
2023-02-13T14:15:03.876Z,6.01
2023-02-13T14:20:30.784Z,6.07
2023-02-13T14:25:33.412Z,6.11
2023-02-13T14:30:38.173Z,6.11
2023-02-13T14:35:39.924Z,6.16
2023-02-13T14:40:48.044Z,6.06
2023-02-13T14:45:55.975Z,6.14
2023-02-13T14:51:00.131Z,6.12
2023-02-13T14:56:15.026Z,6.53
2023-02-13T15:01:29.098Z,6.43
2023-02-13T15:06:36.114Z,6.11
2023-02-13T15:11:44.036Z,5.90
2023-02-13T15:16:50.294Z,5.69
2023-02-13T15:22:00.392Z,5.80
2023-02-13T15:27:06.697Z,5.69
2023-02-13T15:32:19.594Z,5.51
2023-02-13T15:37:24.290Z,5.39
2023-02-13T15:42:25.940Z,5.29
2023-02-13T15:47:31.758Z,5.26
2023-02-13T15:52:37.955Z,5.34
2023-02-13T15:57:40.936Z,4.81
2023-02-13T16:02:47.619Z,4.63
2023-02-13T16:07:58.218Z,4.39
2023-02-13T16:13:03.493Z,4.05
2023-02-13T16:18:11.715Z,3.85
2023-02-13T16:23:20.911Z,3.98
2023-02-13T16:28:26.536Z,3.95
2023-02-13T16:33:37.929Z,3.38
2023-02-13T16:38:42.327Z,3.54
2023-02-13T16:43:49.332Z,3.36
2023-02-13T16:48:56.984Z,3.17
2023-02-13T16:54:02.096Z,3.06
2023-02-13T16:59:22.849Z,2.84
2023-02-13T17:04:25.371Z,1.88
2023-02-13T17:09:27.155Z,1.88
2023-02-13T17:14:28.894Z,2.28
2023-02-13T17:19:30.628Z,1.85
2023-02-13T17:24:32.502Z,2.05
2023-02-13T17:29:34.189Z,1.99
2023-02-13T17:34:35.871Z,1.71
2023-02-13T17:39:37.561Z,1.58
2023-02-13T17:44:39.319Z,1.58
2023-02-13T17:49:41.467Z,1.14
2023-02-13T17:54:44.864Z,1.35
2023-02-13T17:59:47.149Z,1.26
2023-02-13T18:04:49.489Z,1.20
2023-02-13T18:09:51.911Z,1.19
2023-02-13T18:14:54.948Z,1.26
2023-02-13T18:20:01.850Z,0.98
2023-02-13T18:25:04.188Z,1.06
2023-02-13T18:30:07.184Z,1.01
2023-02-13T18:35:09.545Z,0.57
2023-02-13T18:40:11.936Z,0.65
2023-02-13T18:45:13.633Z,0.84
2023-02-13T18:50:15.260Z,0.50
2023-02-13T18:55:17.079Z,0.38
2023-02-13T19:00:20.009Z,0.56
2023-02-13T19:05:22.755Z,0.51
2023-02-13T19:10:24.466Z,0.30
2023-02-13T19:15:26.077Z,0.49
2023-02-13T19:20:27.931Z,0.40
2023-02-13T19:25:29.554Z,0.55
2023-02-13T19:30:31.796Z,0.42
2023-02-13T19:35:33.464Z,0.13
2023-02-13T19:40:35.340Z,0.35
2023-02-13T19:45:36.998Z,0.21
2023-02-13T19:50:39.251Z,0.26
2023-02-13T19:55:40.939Z,0.40
2023-02-13T20:00:42.570Z,0.16
2023-02-13T20:05:44.347Z,-0.13
2023-02-13T20:10:46.343Z,-0.12
2023-02-13T20:15:48.157Z,-0.15
2023-02-13T20:20:50.045Z,-0.13
2023-02-13T20:25:51.668Z,-0.16
2023-02-13T20:30:53.610Z,-0.12
2023-02-13T20:35:55.836Z,-0.10
2023-02-13T20:40:57.828Z,-0.02
2023-02-13T20:45:59.692Z,-0.42
2023-02-13T20:51:02.946Z,-0.44
2023-02-13T20:56:06.776Z,-0.32
2023-02-13T21:01:18.156Z,0.03
2023-02-13T21:06:34.998Z,0.09
2023-02-13T21:11:38.319Z,-0.11
